createdAt,value
2023-03-12T00:02:22.348Z,94148.06
2023-03-12T00:04:49.038Z,94155.69
2023-03-12T00:07:15.685Z,94154.59
2023-03-12T00:09:42.301Z,94151.41
2023-03-12T00:12:09.228Z,94135.53
2023-03-12T00:14:36.671Z,94126.22
2023-03-12T00:17:03.273Z,94136.34
2023-03-12T00:19:29.923Z,94128.72
2023-03-12T00:21:56.632Z,94146.84
2023-03-12T00:24:23.288Z,94130.06
2023-03-12T00:26:49.854Z,94161.72
2023-03-12T00:29:16.485Z,94159.28
2023-03-12T00:31:43.431Z,94170.69
2023-03-12T00:34:10.881Z,94179.25
2023-03-12T00:36:38.105Z,94170.09
2023-03-12T00:39:04.740Z,94176.06
2023-03-12T00:41:31.411Z,94182.78
2023-03-12T00:43:58.075Z,94180.19
2023-03-12T00:46:24.997Z,94184.28
2023-03-12T00:48:51.909Z,94179.34
2023-03-12T00:51:19.312Z,94173.31
2023-03-12T00:53:46.145Z,94186.72
2023-03-12T00:56:12.751Z,94175.25
2023-03-12T00:58:39.608Z,94187.38
2023-03-12T01:01:06.382Z,94195.13
2023-03-12T01:03:33.268Z,94182.22
2023-03-12T01:06:00.164Z,94185.66
2023-03-12T01:08:26.780Z,94173.56
2023-03-12T01:10:53.596Z,94177.91
2023-03-12T01:13:20.642Z,94177.84
2023-03-12T01:15:47.376Z,94183.03
2023-03-12T01:18:14.132Z,94177.59
2023-03-12T01:20:41.108Z,94195.53
2023-03-12T01:23:07.994Z,94186.38
2023-03-12T01:25:35.297Z,94197.22
2023-03-12T01:28:02.354Z,94189.91
2023-03-12T01:30:29.784Z,94197.53
2023-03-12T01:32:56.648Z,94192.59
2023-03-12T01:35:23.326Z,94195.69
2023-03-12T01:37:49.949Z,94192.94
2023-03-12T01:40:26.135Z,94188.41
2023-03-12T01:42:58.146Z,94187.47
2023-03-12T01:46:02.917Z,94193.94
2023-03-12T01:48:35.669Z,94184.44
2023-03-12T01:51:02.742Z,94175.72
2023-03-12T01:53:30.310Z,94185.94
2023-03-12T01:56:00.147Z,94189.47
2023-03-12T01:58:28.681Z,94182.25
2023-03-12T02:00:55.645Z,94169.59
2023-03-12T02:03:22.637Z,94185.94
2023-03-12T02:05:54.989Z,94187.13
2023-03-12T02:08:23.625Z,94184.09
2023-03-12T02:10:50.966Z,94197.03
2023-03-12T02:13:17.738Z,94186.03
2023-03-12T02:15:44.367Z,94189.63
2023-03-12T02:18:15.127Z,94201.03
2023-03-12T02:21:04.343Z,94202.47
2023-03-12T02:24:08.110Z,94198.84
2023-03-12T02:26:38.026Z,94212.44
2023-03-12T02:29:05.639Z,94220.50
2023-03-12T02:31:39.106Z,94216.88
2023-03-12T02:34:05.924Z,94219.56
2023-03-12T02:36:32.734Z,94237.34
2023-03-12T02:38:59.430Z,94232.63
2023-03-12T02:41:41.717Z,94237.66
2023-03-12T02:44:13.234Z,94244.69
2023-03-12T02:46:42.703Z,94243.94
2023-03-12T02:49:11.912Z,94250.59
2023-03-12T02:51:38.990Z,94253.25
2023-03-12T02:54:05.782Z,94261.13
2023-03-12T02:56:32.641Z,94262.78
2023-03-12T02:58:59.398Z,94238.72
2023-03-12T03:01:26.959Z,94253.84
2023-03-12T03:03:54.881Z,94252.47
2023-03-12T03:06:21.815Z,94258.72
2023-03-12T03:08:48.493Z,94250.81
2023-03-12T03:11:15.128Z,94252.41
2023-03-12T03:13:41.766Z,94244.09
2023-03-12T03:16:08.762Z,94247.72
2023-03-12T03:18:35.607Z,94238.09
2023-03-12T03:21:05.904Z,94249.66
2023-03-12T03:23:33.466Z,94255.16
2023-03-12T03:26:03.269Z,94259.81
2023-03-12T03:28:31.197Z,94269.31
2023-03-12T03:31:01.483Z,94254.53
2023-03-12T03:33:29.936Z,94257.56
2023-03-12T03:35:59.554Z,94259.81
2023-03-12T03:38:27.804Z,94260.59
2023-03-12T03:40:55.214Z,94250.06
2023-03-12T03:43:22.826Z,94252.03
2023-03-12T03:45:56.275Z,94268.53
2023-03-12T03:48:22.875Z,94273.63
2023-03-12T03:50:49.479Z,94269.59
2023-03-12T03:53:16.113Z,94287.78
2023-03-12T03:55:42.715Z,94284.03
2023-03-12T03:58:09.285Z,94281.03
2023-03-12T04:00:35.976Z,94292.00
2023-03-12T04:03:02.641Z,94287.78
2023-03-12T04:05:29.747Z,94291.22
2023-03-12T04:07:56.576Z,94290.50
2023-03-12T04:10:24.942Z,94303.84
2023-03-12T04:12:52.869Z,94314.56
2023-03-12T04:15:19.528Z,94304.31
2023-03-12T04:17:46.117Z,94303.63
2023-03-12T04:20:13.069Z,94310.38
2023-03-12T04:22:40.098Z,94318.81
2023-03-12T04:25:07.490Z,94305.97
2023-03-12T04:27:34.757Z,94306.75
2023-03-12T04:30:01.389Z,94314.78
2023-03-12T04:32:28.074Z,94318.63
2023-03-12T04:34:54.799Z,94320.56
2023-03-12T04:37:21.942Z,94332.38
2023-03-12T04:39:48.556Z,94342.06
2023-03-12T04:42:15.207Z,94354.63
2023-03-12T04:44:41.925Z,94347.88
2023-03-12T04:47:08.704Z,94362.31
2023-03-12T04:49:38.443Z,94358.38
2023-03-12T04:52:05.354Z,94354.75
2023-03-12T04:54:33.023Z,94365.41
2023-03-12T04:56:59.624Z,94354.28
2023-03-12T04:59:26.331Z,94375.38
2023-03-12T05:01:53.021Z,94369.66
2023-03-12T05:04:19.668Z,94370.06
2023-03-12T05:06:46.302Z,94380.72
2023-03-12T05:09:12.985Z,94386.03
2023-03-12T05:11:40.066Z,94390.63
2023-03-12T05:14:06.697Z,94392.91
2023-03-12T05:16:33.522Z,94398.25
2023-03-12T05:19:00.308Z,94404.53
2023-03-12T05:21:26.899Z,94393.16
2023-03-12T05:23:54.003Z,94399.59
2023-03-12T05:26:23.994Z,94416.34
2023-03-12T05:28:51.053Z,94409.06
2023-03-12T05:31:18.416Z,94416.94
2023-03-12T05:33:46.277Z,94421.09
2023-03-12T05:36:13.481Z,94431.84
2023-03-12T05:38:40.634Z,94430.69
2023-03-12T05:41:07.342Z,94428.75
2023-03-12T05:43:34.565Z,94434.44
2023-03-12T05:46:04.124Z,94439.31
2023-03-12T05:48:31.647Z,94426.88
2023-03-12T05:50:58.693Z,94429.34
2023-03-12T05:53:25.519Z,94449.09
2023-03-12T05:55:52.152Z,94441.88
2023-03-12T05:58:19.161Z,94438.44
2023-03-12T06:00:45.911Z,94433.75
2023-03-12T06:03:13.375Z,94441.81
2023-03-12T06:05:40.295Z,94442.28
2023-03-12T06:08:07.816Z,94441.16
2023-03-12T06:10:34.533Z,94459.97
2023-03-12T06:13:01.124Z,94450.50
2023-03-12T06:15:34.166Z,94477.88
2023-03-12T06:18:00.755Z,94473.41
2023-03-12T06:20:27.356Z,94494.84
2023-03-12T06:22:53.989Z,94493.16
2023-03-12T06:25:20.562Z,94506.47
2023-03-12T06:27:47.550Z,94486.44
2023-03-12T06:30:14.869Z,94479.25
2023-03-12T06:32:41.582Z,94495.09
2023-03-12T06:35:08.729Z,94499.94
2023-03-12T06:37:35.612Z,94497.16
2023-03-12T06:40:02.225Z,94495.09
2023-03-12T06:42:28.782Z,94501.31
2023-03-12T06:44:55.354Z,94490.84
2023-03-12T06:47:22.133Z,94493.06
2023-03-12T06:49:48.803Z,94502.41
2023-03-12T06:52:15.411Z,94505.44
2023-03-12T06:54:42.223Z,94518.69
2023-03-12T06:57:09.067Z,94515.78
2023-03-12T06:59:35.733Z,94518.16
2023-03-12T07:02:02.662Z,94505.25
2023-03-12T07:04:29.401Z,94538.03
2023-03-12T07:06:56.020Z,94540.56
2023-03-12T07:09:22.690Z,94543.19
2023-03-12T07:11:49.344Z,94533.56
2023-03-12T07:14:16.061Z,94540.69
2023-03-12T07:16:42.710Z,94548.69
2023-03-12T07:19:09.382Z,94556.41
2023-03-12T07:21:36.043Z,94558.09
2023-03-12T07:24:06.946Z,94556.06
2023-03-12T07:26:35.590Z,94558.16
2023-03-12T07:29:04.057Z,94565.81
2023-03-12T07:31:30.815Z,94557.00
2023-03-12T07:33:57.628Z,94573.06
2023-03-12T07:36:24.588Z,94569.88
2023-03-12T07:38:51.452Z,94591.56
2023-03-12T07:41:18.073Z,94567.78
2023-03-12T07:43:44.761Z,94583.00
2023-03-12T07:46:11.599Z,94571.97
2023-03-12T07:48:40.930Z,94574.84
2023-03-12T07:51:08.684Z,94588.13
2023-03-12T07:53:35.343Z,94575.53
2023-03-12T07:56:02.141Z,94560.22
2023-03-12T07:58:28.988Z,94575.13
2023-03-12T08:00:56.553Z,94569.28
2023-03-12T08:03:23.734Z,94587.88
2023-03-12T08:05:59.043Z,94588.91
2023-03-12T08:08:26.229Z,94594.91
2023-03-12T08:10:53.676Z,94585.09
2023-03-12T08:13:20.424Z,94588.03
2023-03-12T08:15:47.166Z,94597.81
2023-03-12T08:18:13.788Z,94594.22
2023-03-12T08:20:40.523Z,94611.00
2023-03-12T08:23:07.147Z,94602.66
2023-03-12T08:25:34.032Z,94599.69
2023-03-12T08:28:00.607Z,94588.19
2023-03-12T08:30:29.814Z,94593.38
2023-03-12T08:32:57.567Z,94607.84
2023-03-12T08:35:24.327Z,94617.88
2023-03-12T08:37:50.912Z,94604.44
2023-03-12T08:40:18.683Z,94608.91
2023-03-12T08:42:45.778Z,94604.72
2023-03-12T08:45:13.368Z,94625.56
2023-03-12T08:47:41.797Z,94633.22
2023-03-12T08:50:12.952Z,94615.56
2023-03-12T08:52:40.125Z,94618.25
2023-03-12T08:55:07.030Z,94604.03
2023-03-12T08:57:33.646Z,94623.97
2023-03-12T09:00:00.301Z,94633.72
2023-03-12T09:02:26.937Z,94640.69
2023-03-12T09:04:53.636Z,94636.59
2023-03-12T09:07:22.187Z,94635.09
2023-03-12T09:09:48.815Z,94608.38
2023-03-12T09:12:15.514Z,94636.41
2023-03-12T09:15:02.418Z,94635.66
2023-03-12T09:17:30.400Z,94634.94
2023-03-12T09:19:57.008Z,94635.97
2023-03-12T09:22:23.693Z,94631.97
2023-03-12T09:24:50.354Z,94627.53
2023-03-12T09:27:17.079Z,94639.91
2023-03-12T09:29:58.706Z,94642.28
2023-03-12T09:32:27.832Z,94629.91
2023-03-12T09:34:55.072Z,94622.41
2023-03-12T09:37:24.087Z,94622.94
2023-03-12T09:39:52.247Z,94629.16
2023-03-12T09:42:36.404Z,94639.41
2023-03-12T09:45:06.166Z,94641.59
2023-03-12T09:47:37.182Z,94628.75
2023-03-12T09:50:17.391Z,94630.91
2023-03-12T09:52:57.961Z,94634.16
2023-03-12T09:55:25.671Z,94635.56
2023-03-12T09:57:53.060Z,94623.88
2023-03-12T10:00:34.518Z,94627.88
2023-03-12T10:03:23.323Z,94619.88
2023-03-12T10:06:14.936Z,94617.63
2023-03-12T10:09:03.009Z,94633.81
2023-03-12T10:11:51.031Z,94623.22
2023-03-12T10:14:30.159Z,94628.00
2023-03-12T10:17:14.204Z,94618.97
2023-03-12T10:20:13.070Z,94630.22
2023-03-12T10:23:07.478Z,94618.34
2023-03-12T10:25:50.125Z,94628.31
2023-03-12T10:28:37.698Z,94620.22
2023-03-12T10:31:15.254Z,94620.19
2023-03-12T10:33:48.189Z,94624.31
2023-03-12T10:36:23.477Z,94608.97
2023-03-12T10:38:50.241Z,94609.75
2023-03-12T10:41:25.419Z,94553.94
2023-03-12T10:43:52.740Z,94618.66
2023-03-12T10:46:37.922Z,94614.00
2023-03-12T10:49:26.143Z,94601.16
2023-03-12T10:52:03.608Z,94613.16
2023-03-12T10:54:34.888Z,94595.16
2023-03-12T10:57:01.589Z,94627.19
2023-03-12T10:59:31.966Z,94615.38
2023-03-12T11:01:59.548Z,94624.13
2023-03-12T11:04:30.508Z,94610.97
2023-03-12T11:07:12.257Z,94618.56
2023-03-12T11:09:39.102Z,94601.97
2023-03-12T11:12:26.244Z,94597.53
2023-03-12T11:14:53.290Z,94617.28
2023-03-12T11:17:25.766Z,94613.31
2023-03-12T11:19:53.211Z,94615.84
2023-03-12T11:22:34.413Z,94587.09
2023-03-12T11:25:06.103Z,94606.91
2023-03-12T11:27:42.048Z,94594.91
2023-03-12T11:30:15.489Z,94593.44
2023-03-12T11:32:46.960Z,94599.81
2023-03-12T11:35:17.729Z,94592.75
2023-03-12T11:38:05.766Z,94601.53
2023-03-12T11:41:06.304Z,94591.97
2023-03-12T11:43:52.114Z,94596.03
2023-03-12T11:46:41.958Z,94587.69
2023-03-12T11:49:34.596Z,94553.72
2023-03-12T11:52:08.151Z,94587.41
2023-03-12T11:55:07.901Z,94590.91
2023-03-12T11:58:03.970Z,94545.75
2023-03-12T12:00:48.033Z,94584.13
2023-03-12T12:03:28.392Z,94474.88
2023-03-12T12:06:27.528Z,94557.41
2023-03-12T12:09:23.988Z,94580.69
2023-03-12T12:12:02.479Z,94589.47
2023-03-12T12:14:56.003Z,94598.56
2023-03-12T12:18:08.039Z,94601.81
2023-03-12T12:20:39.774Z,94605.47
2023-03-12T12:23:22.233Z,94593.63
2023-03-12T12:26:07.246Z,94588.72
2023-03-12T12:29:03.301Z,94587.59
2023-03-12T12:31:40.673Z,94591.47
2023-03-12T12:34:25.437Z,94594.22
2023-03-12T12:37:14.823Z,94590.47
2023-03-12T12:40:22.550Z,94590.88
2023-03-12T12:42:52.103Z,94589.06
2023-03-12T12:45:21.118Z,94598.94
2023-03-12T12:47:56.106Z,94587.31
2023-03-12T12:50:27.448Z,94594.91
2023-03-12T12:53:15.745Z,94591.81
2023-03-12T12:56:03.595Z,94582.16
2023-03-12T12:59:09.453Z,94583.66
2023-03-12T13:01:37.998Z,94594.16
2023-03-12T13:04:10.800Z,94581.88
2023-03-12T13:07:12.616Z,94593.97
2023-03-12T13:09:45.753Z,94594.19
2023-03-12T13:12:20.688Z,94589.03
2023-03-12T13:14:49.254Z,94577.56
2023-03-12T13:17:30.145Z,94582.56
2023-03-12T13:20:11.114Z,94574.53
2023-03-12T13:22:37.675Z,94589.19
2023-03-12T13:25:09.938Z,94588.59
2023-03-12T13:27:37.697Z,94581.28
2023-03-12T13:30:35.183Z,94593.41
2023-03-12T13:33:02.007Z,94598.56
2023-03-12T13:36:03.800Z,94609.16
2023-03-12T13:38:57.221Z,94614.13
2023-03-12T13:41:36.987Z,94603.97
2023-03-12T13:44:31.506Z,94616.66
2023-03-12T13:47:01.039Z,94616.78
2023-03-12T13:49:36.788Z,94611.63
2023-03-12T13:52:03.753Z,94608.06
2023-03-12T13:54:34.055Z,94613.72
2023-03-12T13:57:30.672Z,94585.06
2023-03-12T13:59:58.796Z,94608.88
2023-03-12T14:02:31.616Z,94603.09
2023-03-12T14:05:09.579Z,94610.75
2023-03-12T14:07:55.612Z,94609.69
2023-03-12T14:10:46.657Z,94625.00
2023-03-12T14:13:29.088Z,94619.41
2023-03-12T14:16:11.257Z,94621.50
2023-03-12T14:18:39.401Z,94604.63
2023-03-12T14:21:14.202Z,94612.75
2023-03-12T14:23:51.148Z,94623.88
2023-03-12T14:26:24.586Z,94628.00
2023-03-12T14:29:13.337Z,94618.31
2023-03-12T14:31:40.730Z,94625.38
2023-03-12T14:34:20.715Z,94632.88
2023-03-12T14:37:12.893Z,94628.34
2023-03-12T14:39:45.672Z,94638.31
2023-03-12T14:42:45.075Z,94632.19
2023-03-12T14:45:21.013Z,94631.75
2023-03-12T14:47:58.577Z,94646.41
2023-03-12T14:50:37.614Z,94647.63
2023-03-12T14:53:19.345Z,94634.78
2023-03-12T14:55:46.049Z,94643.84
2023-03-12T14:58:18.880Z,94651.84
2023-03-12T15:00:57.907Z,94648.53
2023-03-12T15:03:27.086Z,94645.34
2023-03-12T15:05:54.147Z,94635.25
2023-03-12T15:08:21.704Z,94655.09
2023-03-12T15:10:57.750Z,94653.97
2023-03-12T15:13:27.217Z,94661.00
2023-03-12T15:15:55.481Z,94653.16
2023-03-12T15:18:28.996Z,94651.28
2023-03-12T15:20:57.808Z,94649.50
2023-03-12T15:23:26.370Z,94659.97
2023-03-12T15:26:21.289Z,94662.69
2023-03-12T15:29:01.353Z,94679.22
2023-03-12T15:31:28.474Z,94686.28
2023-03-12T15:34:04.096Z,94685.03
2023-03-12T15:36:33.434Z,94683.75
2023-03-12T15:39:16.517Z,94689.03
2023-03-12T15:41:47.818Z,94690.66
2023-03-12T15:44:26.809Z,94701.78
2023-03-12T15:47:08.028Z,94700.63
2023-03-12T15:49:37.388Z,94705.28
2023-03-12T15:52:24.734Z,94708.88
2023-03-12T15:55:14.514Z,94715.94
2023-03-12T15:57:53.062Z,94721.69
2023-03-12T16:00:24.214Z,94730.78
2023-03-12T16:02:56.005Z,94730.88
2023-03-12T16:05:35.706Z,94743.88
2023-03-12T16:08:21.578Z,94749.59
2023-03-12T16:10:50.243Z,94757.28
2023-03-12T16:13:20.262Z,94757.94
2023-03-12T16:15:48.022Z,94742.25
2023-03-12T16:18:19.861Z,94768.97
2023-03-12T16:20:48.305Z,94738.13
2023-03-12T16:23:15.648Z,94776.06
2023-03-12T16:25:48.434Z,94780.34
2023-03-12T16:28:18.654Z,94787.78
2023-03-12T16:30:45.717Z,94785.59
2023-03-12T16:33:15.532Z,94782.44
2023-03-12T16:35:42.713Z,94775.06
2023-03-12T16:38:33.146Z,94803.88
2023-03-12T16:41:00.193Z,94800.78
2023-03-12T16:43:29.936Z,94814.69
2023-03-12T16:45:57.952Z,94814.28
2023-03-12T16:48:25.624Z,94825.50
2023-03-12T16:53:32.294Z,94836.31
2023-03-12T16:56:01.273Z,94831.19
2023-03-12T16:58:30.175Z,94843.16
2023-03-12T17:00:57.879Z,94849.06
2023-03-12T17:03:35.051Z,94851.00
2023-03-12T17:06:03.076Z,94856.06
2023-03-12T17:08:29.706Z,94864.06
2023-03-12T17:10:57.577Z,94873.69
2023-03-12T17:13:27.324Z,94875.06
2023-03-12T17:15:55.579Z,94883.16
2023-03-12T17:18:22.790Z,94881.88
2023-03-12T17:20:51.789Z,94885.75
2023-03-12T17:23:19.463Z,94900.69
2023-03-12T17:25:46.592Z,94903.22
2023-03-12T17:28:15.352Z,94898.22
2023-03-12T17:30:43.990Z,94905.81
2023-03-12T17:33:16.400Z,94911.69
2023-03-12T17:35:43.182Z,94916.03
2023-03-12T17:38:10.718Z,94913.16
2023-03-12T17:40:42.231Z,94915.31
2023-03-12T17:43:09.264Z,94927.22
2023-03-12T17:45:37.160Z,94927.84
2023-03-12T17:48:04.250Z,94936.19
2023-03-12T17:50:31.150Z,94940.22
2023-03-12T17:52:57.834Z,94936.47
2023-03-12T17:55:24.584Z,94942.22
2023-03-12T17:57:51.293Z,94948.72
2023-03-12T18:00:18.373Z,94957.22
2023-03-12T18:02:45.110Z,94953.81
2023-03-12T18:05:12.310Z,94942.97
2023-03-12T18:07:39.959Z,94934.06
2023-03-12T18:10:11.123Z,94930.66
2023-03-12T18:12:41.103Z,94961.63
2023-03-12T18:15:11.014Z,94976.19
2023-03-12T18:17:38.143Z,94967.81
2023-03-12T18:20:21.306Z,94959.66
2023-03-12T18:22:53.136Z,94976.50
2023-03-12T18:25:19.768Z,94971.94
2023-03-12T18:27:46.664Z,94978.50
2023-03-12T18:30:13.811Z,94978.91
2023-03-12T18:32:41.227Z,94987.47
2023-03-12T18:35:08.402Z,94985.13
2023-03-12T18:37:35.051Z,94994.69
2023-03-12T18:40:01.779Z,94994.41
2023-03-12T18:42:28.465Z,94995.66
2023-03-12T18:44:55.178Z,95008.28
2023-03-12T18:47:21.801Z,94996.94
2023-03-12T18:49:48.524Z,95000.81
2023-03-12T18:52:15.232Z,95005.59
2023-03-12T18:54:41.906Z,95002.13
2023-03-12T18:57:08.706Z,94989.59
2023-03-12T18:59:35.356Z,95008.75
2023-03-12T19:02:02.106Z,95018.34
2023-03-12T19:04:29.140Z,95014.53
2023-03-12T19:06:55.920Z,95013.94
2023-03-12T19:09:22.761Z,95023.84
2023-03-12T19:11:49.803Z,95030.47
2023-03-12T19:14:17.102Z,95032.00
2023-03-12T19:16:43.925Z,95039.25
2023-03-12T19:19:10.796Z,95050.06
2023-03-12T19:21:37.655Z,95055.16
2023-03-12T19:24:04.714Z,95039.84
2023-03-12T19:26:31.370Z,95052.13
2023-03-12T19:28:58.039Z,95038.38
2023-03-12T19:31:25.555Z,95058.72
2023-03-12T19:33:52.614Z,95054.88
2023-03-12T19:36:19.300Z,95063.47
2023-03-12T19:38:45.926Z,95067.78
2023-03-12T19:41:12.686Z,95056.69
2023-03-12T19:43:40.803Z,95067.78
2023-03-12T19:46:07.487Z,95082.69
2023-03-12T19:48:34.398Z,95095.81
2023-03-12T19:51:09.065Z,95086.19
2023-03-12T19:53:36.149Z,95087.84
2023-03-12T19:56:03.005Z,95090.97
2023-03-12T19:58:32.381Z,95101.25
2023-03-12T20:01:00.556Z,95099.72
2023-03-12T20:03:28.831Z,95104.84
2023-03-12T20:05:55.984Z,95097.94
2023-03-12T20:08:26.321Z,95106.41
2023-03-12T20:10:53.176Z,95104.53
2023-03-12T20:13:20.333Z,95114.16
2023-03-12T20:15:48.486Z,95109.94
2023-03-12T20:18:16.148Z,95119.09
2023-03-12T20:20:43.491Z,95120.28
2023-03-12T20:23:10.346Z,95123.41
2023-03-12T20:25:43.142Z,95124.16
2023-03-12T20:28:11.186Z,95119.09
2023-03-12T20:30:41.529Z,95132.91
2023-03-12T20:33:08.775Z,95127.16
2023-03-12T20:35:36.530Z,95136.03
2023-03-12T20:38:04.175Z,95146.38
2023-03-12T20:40:31.184Z,95144.06
2023-03-12T20:42:57.964Z,95135.31
2023-03-12T20:45:24.574Z,95147.16
2023-03-12T20:47:51.471Z,95148.72
2023-03-12T20:50:18.183Z,95147.59
2023-03-12T20:52:45.289Z,95153.34
2023-03-12T20:55:12.095Z,95150.00
2023-03-12T20:57:38.832Z,95145.78
2023-03-12T21:00:06.145Z,95157.66
2023-03-12T21:02:32.826Z,95159.19
2023-03-12T21:04:59.468Z,95155.31
2023-03-12T21:07:26.126Z,95155.72
2023-03-12T21:09:52.740Z,95163.78
2023-03-12T21:12:19.355Z,95152.28
2023-03-12T21:14:45.961Z,95161.94
2023-03-12T21:17:13.789Z,95166.50
2023-03-12T21:19:41.695Z,95161.16
2023-03-12T21:22:09.088Z,95155.06
2023-03-12T21:24:36.209Z,95160.06
2023-03-12T21:27:03.119Z,95174.25
2023-03-12T21:29:29.904Z,95172.75
2023-03-12T21:31:57.514Z,95179.66
2023-03-12T21:34:24.322Z,95169.69
2023-03-12T21:36:50.973Z,95176.22
2023-03-12T21:39:18.010Z,95172.00
2023-03-12T21:41:44.690Z,95181.22
2023-03-12T21:44:11.355Z,95162.03
2023-03-12T21:46:38.177Z,95169.69
2023-03-12T21:49:04.931Z,95177.00
2023-03-12T21:51:31.555Z,95180.09
2023-03-12T21:53:58.558Z,95169.00
2023-03-12T21:56:28.181Z,95173.19
2023-03-12T21:58:57.269Z,95158.63
2023-03-12T22:01:24.546Z,95175.50
2023-03-12T22:03:51.472Z,95170.56
2023-03-12T22:06:18.156Z,95167.47
2023-03-12T22:08:48.111Z,95169.00
2023-03-12T22:11:15.834Z,95175.53
2023-03-12T22:13:42.771Z,95174.38
2023-03-12T22:16:11.964Z,95171.31
2023-03-12T22:18:40.945Z,95172.53
2023-03-12T22:21:09.074Z,95172.88
2023-03-12T22:23:36.801Z,95178.63
2023-03-12T22:26:05.775Z,95181.31
2023-03-12T22:28:32.987Z,95192.03
2023-03-12T22:31:01.193Z,95183.97
2023-03-12T22:33:28.428Z,95186.31
2023-03-12T22:35:55.539Z,95188.19
2023-03-12T22:38:23.634Z,95192.75
2023-03-12T22:40:50.336Z,95187.44
2023-03-12T22:43:17.020Z,95195.84
2023-03-12T22:45:43.895Z,95172.13
2023-03-12T22:48:10.557Z,95186.28
2023-03-12T22:50:37.396Z,95187.47
2023-03-12T22:53:04.170Z,95190.13
2023-03-12T22:55:30.868Z,95186.66
2023-03-12T22:57:57.506Z,95189.34
2023-03-12T23:00:26.631Z,95172.47
2023-03-12T23:02:53.404Z,95179.78
2023-03-12T23:05:20.156Z,95177.09
2023-03-12T23:07:46.972Z,95193.94
2023-03-12T23:10:13.575Z,95188.22
2023-03-12T23:12:40.234Z,95187.47
2023-03-12T23:15:07.342Z,95194.34
2023-03-12T23:17:34.122Z,95195.16
2023-03-12T23:20:00.687Z,95208.91
2023-03-12T23:22:27.314Z,95218.47
2023-03-12T23:24:53.931Z,95218.84
2023-03-12T23:27:20.556Z,95225.78
2023-03-12T23:29:47.160Z,95217.34
2023-03-12T23:32:13.876Z,95220.03
2023-03-12T23:34:40.440Z,95221.19
2023-03-12T23:37:07.284Z,95213.53
2023-03-12T23:39:44.939Z,95218.50
2023-03-12T23:42:18.544Z,95227.31
2023-03-12T23:44:46.400Z,95224.63
2023-03-12T23:47:13.002Z,95220.03
2023-03-12T23:49:39.580Z,95218.50
2023-03-12T23:52:06.475Z,95231.88
2023-03-12T23:54:33.187Z,95226.53
2023-03-12T23:56:59.792Z,95226.16
2023-03-12T23:59:26.330Z,95218.16
